Warning: Javascript must be enabled to use all the features on this page!


Page Loading - Please Wait...

* We've detected you're using a mobile device. Find our Next Generation Station Page here.
Click to hideNews Bulletins

Peak Streamflow for the Nation

USGS 09057500 BLUE RIVER BELOW GREEN MOUNTAIN RESERVOIR, CO

Summit County, Colorado
Hydrologic Unit Code 14010002
Latitude  39°52'49", Longitude 106°20'00" NAD27
Drainage area 597  square miles
Gage datum 7,682.66 feet above NGVD29
Output formats
Table
Graph
Tab-separated file
peakfq (watstore) format
Reselect output format
Water
Year
Date Gage
Height
(feet)
Stream-
flow
(cfs)
1938 1938-06-04 5.93 4,000
1939 1939-05-23 5.33 3,190
1940 1940-06-02 4.98 2,800
1941 1941-06-19 5.17 3,010
1942 1942-06-07 5.60 3,570
1943 1943-06-30 5.28 3,1506
1944 1943-10-29 4.04 1,6806
1945 1945-08-07 4.22 1,8306
1946 1946-06-18 4.25 1,8606
1947 1947-06-30 5.57 3,4906
1948 1948-06-14 4.67 2,3006
1949 1949-06-24 5.10 2,8706
1950 1950-06-15 4.17 1,8606
1951 1951-07-17 4.60 2,3106
1952 1952-06-21 8.626 2,6206
1953 1953-06-02 7.33 1,8306
1954 1954-09-07 7.30 1,8106
1955 1954-10-05 6.76 1,4906
1956 1956-06-01 7.36 1,8506
1957 1957-07-08 10.13 3,5206
1958 1958-05-19 7.63 1,9206
1959 1959-05-15 7.64 1,9206
1960 1960-05-25 7.26 1,6406
1961 1961-06-02 7.61 1,9106
1962 1962-03-14 4.71 1,7906
1963 1962-11-01 7.43 1,8006
1964 1963-11-06 7.05 1,6006
1965 1965-07-20 7.07 1,6406
1966 1966-04-05 7.25 1,7406
1967 1967-04-14 7.06 1,5606
1968 1968-04-01 6.55 1,2806
1969 1969-06-26 6.69 1,3606
1970 1970-06-29 7.07 1,6106
1971 1971-06-30 7.37 1,7606
1972 1972-06-24 6.62 1,4006
1973 1973-07-16 7.71 1,9806
1974 1974-06-24 6.91 1,5006
1975 1975-07-19 6.71 1,4206
1976 1976-06-29 5.22 7966
1977 1977-08-04 5.55 9166
1978 1978-07-18 5.70 9846
1979 1979-07-03 7.54 1,8606
1980 1980-06-16 6.21 1,1506
1981 1981-08-21 4.96 6536
1982 1982-07-08 5.92 1,0106
1983 1983-07-11 9.52 3,0106
1984 1984-07-01 10.22 3,4606
1985 1985-07-22 7.46 1,7406
1986 1986-06-17 7.60 1,8106
1987 1987-08-05 6.09 1,0506
1988 1988-07-01 6.40 1,1906
1989 1989-09-05 5.93 9826
1990 1990-08-31 6.59 1,2806
1991 1991-06-18 5.35 7486
1992 1992-08-21 5.75 8546
1993 1993-07-03 7.01 1,4306
1994 1994-08-17 5.40 7206
1995 1995-07-12 10.85 4,0406
1996 1996-06-20 8.86 2,5106
1997 1997-06-24 9.88 3,1906
1998 1998-05-28 7.29 1,5306
1999 1999-07-03 7.82 1,8106
2000 2000-06-21 7.10 1,4206
2001 2001-08-31 6.15 1,0206
2002 2001-10-01 5.45 7386
2003 2003-09-24 5.96 8946
2004 2003-10-02 6.12 9616
2005 2005-07-01 7.49 1,6806
2006 2006-07-12 6.72 1,2606
2007 2007-06-18 9.15 2,7306
2008 2008-07-08 7.70 1,8006
2009 2009-06-28 9.53 3,0006
2010 2010-06-10 8.78 2,4706
2011 2011-07-11 10.12 3,3906
2012 2011-10-02 6.11 9406
2013 2013-08-29 5.74 8066
2014 2014-06-09 8.00 1,9006
2015 2015-06-21 8.89 2,4006
2016 2016-06-07 7.42 1,5006
2017 2017-06-08 7.32 1,4806
2018 2018-08-24 6.19 9616
2019 2019-07-04 8.98 2,5306
2020 2020-06-02 7.20 1,4706
2021 2021-07-29 6.02 9606
2022 2022-09-05 5.55 7826
2023 2023-06-24 7.76 1,8206
?
  Peak Gage-Height Qualification Codes.
?
  Peak Streamflow Qualification Codes.